sensor_id;sensor_type;location;lat;lon;timestamp;P1;durP1;ratioP1;P2;durP2;ratioP2
1400;SDS011;46518;48.842;8.926;2023-04-21T00:00:02;22.73;;;17.33;;
1400;SDS011;46518;48.842;8.926;2023-04-21T00:02:33;25.83;;;18.38;;
1400;SDS011;46518;48.842;8.926;2023-04-21T00:05:05;22.58;;;17.15;;
1400;SDS011;46518;48.842;8.926;2023-04-21T00:07:36;24.27;;;17.15;;
1400;SDS011;46518;48.842;8.926;2023-04-21T00:10:05;24.50;;;19.17;;
1400;SDS011;46518;48.842;8.926;2023-04-21T00:12:35;28.33;;;19.42;;
1400;SDS011;46518;48.842;8.926;2023-04-21T00:15:05;25.42;;;18.63;;
1400;SDS011;46518;48.842;8.926;2023-04-21T00:17:34;26.33;;;19.50;;
1400;SDS011;46518;48.842;8.926;2023-04-21T00:20:03;24.27;;;19.02;;
1400;SDS011;46518;48.842;8.926;2023-04-21T00:22:32;24.75;;;17.60;;
1400;SDS011;46518;48.842;8.926;2023-04-21T00:25:00;29.95;;;18.63;;
1400;SDS011;46518;48.842;8.926;2023-04-21T00:27:28;28.60;;;20.60;;
1400;SDS011;46518;48.842;8.926;2023-04-21T00:29:57;25.42;;;18.70;;
1400;SDS011;46518;48.842;8.926;2023-04-21T00:32:26;24.02;;;18.52;;
1400;SDS011;46518;48.842;8.926;2023-04-21T00:34:56;23.05;;;17.25;;
1400;SDS011;46518;48.842;8.926;2023-04-21T00:37:24;24.10;;;18.83;;
1400;SDS011;46518;48.842;8.926;2023-04-21T00:39:51;21.65;;;16.55;;
1400;SDS011;46518;48.842;8.926;2023-04-21T00:42:19;23.17;;;17.38;;
1400;SDS011;46518;48.842;8.926;2023-04-21T00:44:47;26.75;;;19.52;;
1400;SDS011;46518;48.842;8.926;2023-04-21T00:47:15;27.38;;;20.13;;
1400;SDS011;46518;48.842;8.926;2023-04-21T00:49:45;26.90;;;19.63;;
1400;SDS011;46518;48.842;8.926;2023-04-21T00:52:13;25.35;;;18.88;;
1400;SDS011;46518;48.842;8.926;2023-04-21T00:54:44;30.08;;;20.92;;
1400;SDS011;46518;48.842;8.926;2023-04-21T00:57:15;26.77;;;18.98;;
1400;SDS011;46518;48.842;8.926;2023-04-21T00:59:55;28.10;;;19.77;;
1400;SDS011;46518;48.842;8.926;2023-04-21T01:02:23;25.48;;;19.00;;
1400;SDS011;46518;48.842;8.926;2023-04-21T01:04:53;26.23;;;19.83;;
1400;SDS011;46518;48.842;8.926;2023-04-21T01:07:21;22.83;;;17.45;;
1400;SDS011;46518;48.842;8.926;2023-04-21T01:09:51;27.20;;;16.90;;
1400;SDS011;46518;48.842;8.926;2023-04-21T01:12:21;24.00;;;17.90;;
1400;SDS011;46518;48.842;8.926;2023-04-21T01:14:50;23.02;;;16.38;;
1400;SDS011;46518;48.842;8.926;2023-04-21T01:17:18;21.90;;;15.85;;
1400;SDS011;46518;48.842;8.926;2023-04-21T01:19:46;20.63;;;15.82;;
1400;SDS011;46518;48.842;8.926;2023-04-21T01:22:16;21.25;;;15.23;;
1400;SDS011;46518;48.842;8.926;2023-04-21T01:24:45;22.00;;;15.75;;
1400;SDS011;46518;48.842;8.926;2023-04-21T01:27:16;22.02;;;16.00;;
1400;SDS011;46518;48.842;8.926;2023-04-21T01:29:50;22.88;;;15.50;;
1400;SDS011;46518;48.842;8.926;2023-04-21T01:32:19;20.27;;;15.50;;
1400;SDS011;46518;48.842;8.926;2023-04-21T01:34:51;21.67;;;15.10;;
1400;SDS011;46518;48.842;8.926;2023-04-21T01:37:22;18.45;;;15.52;;
1400;SDS011;46518;48.842;8.926;2023-04-21T01:39:53;23.60;;;15.60;;
1400;SDS011;46518;48.842;8.926;2023-04-21T01:42:24;21.95;;;14.23;;
1400;SDS011;46518;48.842;8.926;2023-04-21T01:44:54;20.40;;;14.45;;
1400;SDS011;46518;48.842;8.926;2023-04-21T01:47:22;16.80;;;14.93;;
1400;SDS011;46518;48.842;8.926;2023-04-21T01:49:52;16.90;;;13.77;;
1400;SDS011;46518;48.842;8.926;2023-04-21T01:52:21;19.77;;;15.05;;
1400;SDS011;46518;48.842;8.926;2023-04-21T01:54:52;20.00;;;12.73;;
1400;SDS011;46518;48.842;8.926;2023-04-21T01:57:20;14.13;;;11.55;;
1400;SDS011;46518;48.842;8.926;2023-04-21T01:59:49;20.17;;;13.65;;
1400;SDS011;46518;48.842;8.926;2023-04-21T02:02:17;15.68;;;11.48;;
1400;SDS011;46518;48.842;8.926;2023-04-21T02:04:46;15.65;;;11.52;;
1400;SDS011;46518;48.842;8.926;2023-04-21T02:07:14;19.08;;;12.70;;
1400;SDS011;46518;48.842;8.926;2023-04-21T02:09:43;12.63;;;10.23;;
1400;SDS011;46518;48.842;8.926;2023-04-21T02:12:13;17.48;;;11.30;;
1400;SDS011;46518;48.842;8.926;2023-04-21T02:14:41;22.73;;;16.08;;
1400;SDS011;46518;48.842;8.926;2023-04-21T02:17:09;22.60;;;16.58;;
1400;SDS011;46518;48.842;8.926;2023-04-21T02:19:37;23.65;;;15.38;;
1400;SDS011;46518;48.842;8.926;2023-04-21T02:22:06;17.63;;;14.07;;
1400;SDS011;46518;48.842;8.926;2023-04-21T02:24:36;20.30;;;15.75;;
1400;SDS011;46518;48.842;8.926;2023-04-21T02:27:05;18.77;;;14.02;;
1400;SDS011;46518;48.842;8.926;2023-04-21T02:29:33;17.63;;;11.95;;
1400;SDS011;46518;48.842;8.926;2023-04-21T02:32:01;13.25;;;10.75;;
1400;SDS011;46518;48.842;8.926;2023-04-21T02:34:49;17.92;;;13.20;;
1400;SDS011;46518;48.842;8.926;2023-04-21T02:37:18;15.75;;;12.95;;
1400;SDS011;46518;48.842;8.926;2023-04-21T02:39:46;19.42;;;13.90;;
1400;SDS011;46518;48.842;8.926;2023-04-21T02:42:16;17.08;;;11.65;;
1400;SDS011;46518;48.842;8.926;2023-04-21T02:44:44;17.40;;;11.65;;
1400;SDS011;46518;48.842;8.926;2023-04-21T02:47:13;19.00;;;12.32;;
1400;SDS011;46518;48.842;8.926;2023-04-21T02:49:42;23.77;;;14.88;;
1400;SDS011;46518;48.842;8.926;2023-04-21T02:52:11;22.13;;;15.90;;
1400;SDS011;46518;48.842;8.926;2023-04-21T02:54:39;29.40;;;19.08;;
1400;SDS011;46518;48.842;8.926;2023-04-21T02:57:07;36.47;;;22.20;;
1400;SDS011;46518;48.842;8.926;2023-04-21T02:59:37;38.90;;;24.60;;
1400;SDS011;46518;48.842;8.926;2023-04-21T03:02:05;41.05;;;27.65;;
1400;SDS011;46518;48.842;8.926;2023-04-21T03:04:36;49.35;;;26.65;;
1400;SDS011;46518;48.842;8.926;2023-04-21T03:07:05;45.55;;;26.10;;
1400;SDS011;46518;48.842;8.926;2023-04-21T03:09:38;36.72;;;24.15;;
1400;SDS011;46518;48.842;8.926;2023-04-21T03:12:06;40.40;;;25.33;;
1400;SDS011;46518;48.842;8.926;2023-04-21T03:14:36;42.75;;;24.02;;
1400;SDS011;46518;48.842;8.926;2023-04-21T03:17:05;41.70;;;24.38;;
1400;SDS011;46518;48.842;8.926;2023-04-21T03:19:33;36.85;;;23.40;;
1400;SDS011;46518;48.842;8.926;2023-04-21T03:22:01;29.13;;;18.85;;
1400;SDS011;46518;48.842;8.926;2023-04-21T03:24:30;29.90;;;18.40;;
1400;SDS011;46518;48.842;8.926;2023-04-21T03:26:58;28.42;;;18.20;;
1400;SDS011;46518;48.842;8.926;2023-04-21T03:29:27;30.17;;;17.15;;
1400;SDS011;46518;48.842;8.926;2023-04-21T03:31:57;30.23;;;17.30;;
1400;SDS011;46518;48.842;8.926;2023-04-21T03:34:25;26.48;;;17.92;;
1400;SDS011;46518;48.842;8.926;2023-04-21T03:36:59;30.25;;;20.33;;
1400;SDS011;46518;48.842;8.926;2023-04-21T03:39:27;26.88;;;19.92;;
1400;SDS011;46518;48.842;8.926;2023-04-21T03:41:55;27.77;;;18.08;;
1400;SDS011;46518;48.842;8.926;2023-04-21T03:44:24;27.45;;;18.13;;
1400;SDS011;46518;48.842;8.926;2023-04-21T03:46:52;27.80;;;17.85;;
1400;SDS011;46518;48.842;8.926;2023-04-21T03:49:23;21.90;;;15.43;;
1400;SDS011;46518;48.842;8.926;2023-04-21T03:51:51;30.75;;;19.58;;
1400;SDS011;46518;48.842;8.926;2023-04-21T03:54:19;24.63;;;15.52;;
1400;SDS011;46518;48.842;8.926;2023-04-21T03:56:47;26.45;;;16.23;;
1400;SDS011;46518;48.842;8.926;2023-04-21T03:59:16;24.80;;;17.13;;
1400;SDS011;46518;48.842;8.926;2023-04-21T04:01:44;24.67;;;17.75;;
1400;SDS011;46518;48.842;8.926;2023-04-21T04:04:12;20.80;;;14.30;;
1400;SDS011;46518;48.842;8.926;2023-04-21T04:06:42;24.50;;;16.45;;
1400;SDS011;46518;48.842;8.926;2023-04-21T04:09:10;18.10;;;13.88;;
1400;SDS011;46518;48.842;8.926;2023-04-21T04:11:38;19.25;;;13.60;;
1400;SDS011;46518;48.842;8.926;2023-04-21T04:14:06;18.25;;;13.93;;
1400;SDS011;46518;48.842;8.926;2023-04-21T04:16:35;19.58;;;12.90;;
1400;SDS011;46518;48.842;8.926;2023-04-21T04:19:03;17.65;;;12.32;;
1400;SDS011;46518;48.842;8.926;2023-04-21T04:21:31;18.73;;;11.48;;
1400;SDS011;46518;48.842;8.926;2023-04-21T04:24:00;16.65;;;11.57;;
1400;SDS011;46518;48.842;8.926;2023-04-21T04:26:30;18.13;;;12.57;;
1400;SDS011;46518;48.842;8.926;2023-04-21T04:29:01;16.60;;;12.55;;
1400;SDS011;46518;48.842;8.926;2023-04-21T04:31:29;17.40;;;12.95;;
1400;SDS011;46518;48.842;8.926;2023-04-21T04:33:57;19.58;;;13.07;;
1400;SDS011;46518;48.842;8.926;2023-04-21T04:36:25;15.35;;;12.07;;
1400;SDS011;46518;48.842;8.926;2023-04-21T04:38:55;17.45;;;11.73;;
1400;SDS011;46518;48.842;8.926;2023-04-21T04:41:25;17.20;;;11.65;;
1400;SDS011;46518;48.842;8.926;2023-04-21T04:43:53;17.85;;;12.73;;
1400;SDS011;46518;48.842;8.926;2023-04-21T04:46:25;13.65;;;11.45;;
1400;SDS011;46518;48.842;8.926;2023-04-21T04:48:54;17.45;;;11.18;;
1400;SDS011;46518;48.842;8.926;2023-04-21T04:51:22;19.58;;;13.40;;
1400;SDS011;46518;48.842;8.926;2023-04-21T04:53:50;17.60;;;12.63;;
1400;SDS011;46518;48.842;8.926;2023-04-21T04:56:18;14.02;;;10.85;;
1400;SDS011;46518;48.842;8.926;2023-04-21T04:58:48;19.83;;;14.13;;
1400;SDS011;46518;48.842;8.926;2023-04-21T05:01:16;24.35;;;14.93;;
1400;SDS011;46518;48.842;8.926;2023-04-21T05:03:45;25.58;;;18.05;;
1400;SDS011;46518;48.842;8.926;2023-04-21T05:06:13;24.63;;;17.35;;
1400;SDS011;46518;48.842;8.926;2023-04-21T05:08:41;24.00;;;17.52;;
1400;SDS011;46518;48.842;8.926;2023-04-21T05:11:10;26.42;;;18.20;;
1400;SDS011;46518;48.842;8.926;2023-04-21T05:13:38;29.17;;;19.55;;
1400;SDS011;46518;48.842;8.926;2023-04-21T05:16:08;25.30;;;16.40;;
1400;SDS011;46518;48.842;8.926;2023-04-21T05:18:37;28.63;;;19.70;;
1400;SDS011;46518;48.842;8.926;2023-04-21T05:21:05;27.92;;;18.60;;
1400;SDS011;46518;48.842;8.926;2023-04-21T05:23:33;32.08;;;19.00;;
1400;SDS011;46518;48.842;8.926;2023-04-21T05:26:02;26.67;;;17.42;;
1400;SDS011;46518;48.842;8.926;2023-04-21T05:28:31;29.83;;;19.75;;
1400;SDS011;46518;48.842;8.926;2023-04-21T05:30:59;30.03;;;17.13;;
1400;SDS011;46518;48.842;8.926;2023-04-21T05:33:28;23.27;;;15.70;;
1400;SDS011;46518;48.842;8.926;2023-04-21T05:35:57;23.67;;;16.50;;
1400;SDS011;46518;48.842;8.926;2023-04-21T05:38:26;25.70;;;15.80;;
1400;SDS011;46518;48.842;8.926;2023-04-21T05:40:54;19.65;;;13.10;;
1400;SDS011;46518;48.842;8.926;2023-04-21T05:43:22;16.70;;;12.50;;
1400;SDS011;46518;48.842;8.926;2023-04-21T05:45:50;18.88;;;13.57;;
1400;SDS011;46518;48.842;8.926;2023-04-21T05:48:19;20.50;;;15.40;;
1400;SDS011;46518;48.842;8.926;2023-04-21T05:50:48;27.88;;;18.15;;
1400;SDS011;46518;48.842;8.926;2023-04-21T05:53:16;21.25;;;14.75;;
1400;SDS011;46518;48.842;8.926;2023-04-21T05:55:45;21.85;;;16.50;;
1400;SDS011;46518;48.842;8.926;2023-04-21T05:58:13;23.08;;;16.13;;
1400;SDS011;46518;48.842;8.926;2023-04-21T06:00:41;22.05;;;14.77;;
1400;SDS011;46518;48.842;8.926;2023-04-21T06:03:09;21.73;;;15.20;;
1400;SDS011;46518;48.842;8.926;2023-04-21T06:05:38;23.05;;;15.95;;
1400;SDS011;46518;48.842;8.926;2023-04-21T06:08:07;21.00;;;14.77;;
1400;SDS011;46518;48.842;8.926;2023-04-21T06:10:35;27.85;;;15.40;;
1400;SDS011;46518;48.842;8.926;2023-04-21T06:13:04;22.35;;;15.60;;
1400;SDS011;46518;48.842;8.926;2023-04-21T06:15:32;19.73;;;14.38;;
1400;SDS011;46518;48.842;8.926;2023-04-21T06:18:00;19.08;;;13.38;;
1400;SDS011;46518;48.842;8.926;2023-04-21T06:20:28;25.98;;;16.88;;
1400;SDS011;46518;48.842;8.926;2023-04-21T06:22:59;20.35;;;13.57;;
1400;SDS011;46518;48.842;8.926;2023-04-21T06:25:29;18.30;;;13.40;;
1400;SDS011;46518;48.842;8.926;2023-04-21T06:27:57;22.55;;;16.02;;
1400;SDS011;46518;48.842;8.926;2023-04-21T06:30:25;24.42;;;15.18;;
1400;SDS011;46518;48.842;8.926;2023-04-21T06:32:53;21.65;;;15.40;;
1400;SDS011;46518;48.842;8.926;2023-04-21T06:35:22;24.35;;;18.17;;
1400;SDS011;46518;48.842;8.926;2023-04-21T06:37:50;24.50;;;17.40;;
1400;SDS011;46518;48.842;8.926;2023-04-21T06:40:18;25.63;;;17.63;;
1400;SDS011;46518;48.842;8.926;2023-04-21T06:42:48;20.50;;;13.98;;
1400;SDS011;46518;48.842;8.926;2023-04-21T06:45:16;20.23;;;14.45;;
1400;SDS011;46518;48.842;8.926;2023-04-21T06:47:44;18.42;;;13.57;;
1400;SDS011;46518;48.842;8.926;2023-04-21T06:50:13;15.65;;;13.23;;
1400;SDS011;46518;48.842;8.926;2023-04-21T06:52:41;17.52;;;13.05;;
1400;SDS011;46518;48.842;8.926;2023-04-21T06:55:10;22.08;;;15.70;;
1400;SDS011;46518;48.842;8.926;2023-04-21T06:57:38;21.85;;;16.08;;
1400;SDS011;46518;48.842;8.926;2023-04-21T07:00:08;18.02;;;14.25;;
1400;SDS011;46518;48.842;8.926;2023-04-21T07:02:37;18.13;;;13.90;;
1400;SDS011;46518;48.842;8.926;2023-04-21T07:05:07;19.70;;;13.57;;
1400;SDS011;46518;48.842;8.926;2023-04-21T07:07:35;17.95;;;13.40;;
1400;SDS011;46518;48.842;8.926;2023-04-21T07:10:04;17.48;;;13.95;;
1400;SDS011;46518;48.842;8.926;2023-04-21T07:12:33;22.13;;;15.90;;
1400;SDS011;46518;48.842;8.926;2023-04-21T07:15:02;21.48;;;15.55;;
1400;SDS011;46518;48.842;8.926;2023-04-21T07:17:31;21.65;;;15.23;;
1400;SDS011;46518;48.842;8.926;2023-04-21T07:19:59;22.27;;;15.73;;
1400;SDS011;46518;48.842;8.926;2023-04-21T07:22:28;22.10;;;14.82;;
1400;SDS011;46518;48.842;8.926;2023-04-21T07:24:56;18.55;;;13.95;;
1400;SDS011;46518;48.842;8.926;2023-04-21T07:27:24;19.33;;;13.68;;
1400;SDS011;46518;48.842;8.926;2023-04-21T07:29:52;19.85;;;14.02;;
1400;SDS011;46518;48.842;8.926;2023-04-21T07:32:21;19.23;;;14.15;;
1400;SDS011;46518;48.842;8.926;2023-04-21T07:34:50;20.92;;;13.30;;
1400;SDS011;46518;48.842;8.926;2023-04-21T07:37:19;22.33;;;14.88;;
1400;SDS011;46518;48.842;8.926;2023-04-21T07:39:49;17.20;;;13.60;;
1400;SDS011;46518;48.842;8.926;2023-04-21T07:42:17;18.20;;;12.68;;
1400;SDS011;46518;48.842;8.926;2023-04-21T07:44:49;15.55;;;11.25;;
1400;SDS011;46518;48.842;8.926;2023-04-21T07:47:18;13.55;;;10.15;;
1400;SDS011;46518;48.842;8.926;2023-04-21T07:49:47;12.68;;;10.68;;
1400;SDS011;46518;48.842;8.926;2023-04-21T07:52:16;14.65;;;10.68;;
1400;SDS011;46518;48.842;8.926;2023-04-21T07:54:44;14.30;;;10.82;;
1400;SDS011;46518;48.842;8.926;2023-04-21T07:57:13;13.88;;;10.70;;
1400;SDS011;46518;48.842;8.926;2023-04-21T07:59:41;14.05;;;10.68;;
1400;SDS011;46518;48.842;8.926;2023-04-21T08:02:09;12.40;;;9.70;;
1400;SDS011;46518;48.842;8.926;2023-04-21T08:04:38;13.93;;;10.35;;
1400;SDS011;46518;48.842;8.926;2023-04-21T08:07:06;15.32;;;12.23;;
1400;SDS011;46518;48.842;8.926;2023-04-21T08:09:37;12.00;;;9.95;;
1400;SDS011;46518;48.842;8.926;2023-04-21T08:12:06;13.20;;;11.50;;
1400;SDS011;46518;48.842;8.926;2023-04-21T08:14:34;15.93;;;11.57;;
1400;SDS011;46518;48.842;8.926;2023-04-21T08:17:03;11.65;;;10.15;;
1400;SDS011;46518;48.842;8.926;2023-04-21T08:19:31;13.43;;;9.80;;
1400;SDS011;46518;48.842;8.926;2023-04-21T08:21:59;13.30;;;9.57;;
1400;SDS011;46518;48.842;8.926;2023-04-21T08:24:27;11.57;;;9.02;;
1400;SDS011;46518;48.842;8.926;2023-04-21T08:26:57;13.23;;;8.93;;
1400;SDS011;46518;48.842;8.926;2023-04-21T08:29:28;10.80;;;9.57;;
1400;SDS011;46518;48.842;8.926;2023-04-21T08:31:56;10.60;;;8.90;;
1400;SDS011;46518;48.842;8.926;2023-04-21T08:34:24;8.98;;;7.82;;
1400;SDS011;46518;48.842;8.926;2023-04-21T08:36:53;12.18;;;9.18;;
1400;SDS011;46518;48.842;8.926;2023-04-21T08:39:21;12.88;;;8.95;;
1400;SDS011;46518;48.842;8.926;2023-04-21T08:41:50;11.50;;;9.20;;
1400;SDS011;46518;48.842;8.926;2023-04-21T08:44:20;12.90;;;9.95;;
1400;SDS011;46518;48.842;8.926;2023-04-21T08:46:49;12.57;;;10.60;;
1400;SDS011;46518;48.842;8.926;2023-04-21T08:49:18;14.20;;;10.68;;
1400;SDS011;46518;48.842;8.926;2023-04-21T08:51:47;13.73;;;10.05;;
1400;SDS011;46518;48.842;8.926;2023-04-21T08:54:16;17.98;;;12.90;;
1400;SDS011;46518;48.842;8.926;2023-04-21T08:56:45;12.10;;;10.40;;
1400;SDS011;46518;48.842;8.926;2023-04-21T08:59:14;13.63;;;11.68;;
1400;SDS011;46518;48.842;8.926;2023-04-21T09:04:37;14.93;;;10.85;;
1400;SDS011;46518;48.842;8.926;2023-04-21T09:07:06;19.42;;;13.20;;
1400;SDS011;46518;48.842;8.926;2023-04-21T09:09:51;12.15;;;10.48;;
1400;SDS011;46518;48.842;8.926;2023-04-21T09:12:20;14.98;;;12.13;;
1400;SDS011;46518;48.842;8.926;2023-04-21T09:14:49;13.48;;;11.30;;
1400;SDS011;46518;48.842;8.926;2023-04-21T09:17:23;12.55;;;9.77;;
1400;SDS011;46518;48.842;8.926;2023-04-21T09:20:07;13.88;;;11.35;;
1400;SDS011;46518;48.842;8.926;2023-04-21T09:22:41;14.23;;;11.35;;
1400;SDS011;46518;48.842;8.926;2023-04-21T09:25:09;15.90;;;11.82;;
1400;SDS011;46518;48.842;8.926;2023-04-21T09:27:43;15.88;;;13.98;;
1400;SDS011;46518;48.842;8.926;2023-04-21T09:30:13;12.65;;;11.05;;
1400;SDS011;46518;48.842;8.926;2023-04-21T09:32:48;12.73;;;11.07;;
1400;SDS011;46518;48.842;8.926;2023-04-21T09:35:16;12.25;;;10.50;;
1400;SDS011;46518;48.842;8.926;2023-04-21T09:37:44;14.02;;;11.80;;
1400;SDS011;46518;48.842;8.926;2023-04-21T09:40:13;16.55;;;11.45;;
1400;SDS011;46518;48.842;8.926;2023-04-21T09:42:44;16.30;;;11.88;;
1400;SDS011;46518;48.842;8.926;2023-04-21T09:45:13;15.23;;;12.95;;
1400;SDS011;46518;48.842;8.926;2023-04-21T09:48:03;16.05;;;11.77;;
1400;SDS011;46518;48.842;8.926;2023-04-21T09:50:36;17.40;;;14.05;;
1400;SDS011;46518;48.842;8.926;2023-04-21T09:53:25;15.77;;;12.40;;
1400;SDS011;46518;48.842;8.926;2023-04-21T09:55:56;17.33;;;12.55;;
1400;SDS011;46518;48.842;8.926;2023-04-21T09:58:26;15.55;;;12.02;;
1400;SDS011;46518;48.842;8.926;2023-04-21T10:00:58;13.77;;;11.13;;
1400;SDS011;46518;48.842;8.926;2023-04-21T10:03:30;17.00;;;12.38;;
1400;SDS011;46518;48.842;8.926;2023-04-21T10:05:59;12.35;;;10.50;;
1400;SDS011;46518;48.842;8.926;2023-04-21T10:08:28;14.07;;;11.20;;
1400;SDS011;46518;48.842;8.926;2023-04-21T10:10:56;14.27;;;11.77;;
1400;SDS011;46518;48.842;8.926;2023-04-21T10:13:27;12.95;;;11.40;;
1400;SDS011;46518;48.842;8.926;2023-04-21T10:16:00;16.27;;;12.07;;
1400;SDS011;46518;48.842;8.926;2023-04-21T10:18:30;14.48;;;11.80;;
1400;SDS011;46518;48.842;8.926;2023-04-21T10:21:03;16.60;;;12.35;;
1400;SDS011;46518;48.842;8.926;2023-04-21T10:23:36;17.42;;;13.65;;
1400;SDS011;46518;48.842;8.926;2023-04-21T10:26:07;18.50;;;11.93;;
1400;SDS011;46518;48.842;8.926;2023-04-21T10:28:38;15.20;;;10.93;;
1400;SDS011;46518;48.842;8.926;2023-04-21T10:31:17;13.77;;;10.77;;
1400;SDS011;46518;48.842;8.926;2023-04-21T10:39:54;13.45;;;11.02;;
1400;SDS011;46518;48.842;8.926;2023-04-21T10:42:24;12.68;;;11.38;;
1400;SDS011;46518;48.842;8.926;2023-04-21T10:45:07;14.27;;;11.32;;
1400;SDS011;46518;48.842;8.926;2023-04-21T10:47:45;15.48;;;12.13;;
1400;SDS011;46518;48.842;8.926;2023-04-21T10:50:19;14.13;;;11.38;;
1400;SDS011;46518;48.842;8.926;2023-04-21T10:52:56;16.00;;;11.88;;
1400;SDS011;46518;48.842;8.926;2023-04-21T10:55:27;13.75;;;10.57;;
1400;SDS011;46518;48.842;8.926;2023-04-21T10:57:57;10.60;;;9.50;;
1400;SDS011;46518;48.842;8.926;2023-04-21T11:00:28;11.73;;;9.95;;
1400;SDS011;46518;48.842;8.926;2023-04-21T11:02:58;14.00;;;12.35;;
1400;SDS011;46518;48.842;8.926;2023-04-21T11:05:39;12.68;;;10.85;;
1400;SDS011;46518;48.842;8.926;2023-04-21T11:08:09;15.13;;;11.30;;
1400;SDS011;46518;48.842;8.926;2023-04-21T11:10:47;12.60;;;10.65;;
1400;SDS011;46518;48.842;8.926;2023-04-21T11:13:21;14.63;;;12.20;;
1400;SDS011;46518;48.842;8.926;2023-04-21T11:15:55;14.63;;;11.90;;
1400;SDS011;46518;48.842;8.926;2023-04-21T11:18:31;16.40;;;11.10;;
1400;SDS011;46518;48.842;8.926;2023-04-21T11:21:11;11.73;;;10.52;;
1400;SDS011;46518;48.842;8.926;2023-04-21T11:23:47;14.00;;;11.45;;
1400;SDS011;46518;48.842;8.926;2023-04-21T11:26:17;12.32;;;11.10;;
1400;SDS011;46518;48.842;8.926;2023-04-21T11:28:58;13.07;;;10.77;;
1400;SDS011;46518;48.842;8.926;2023-04-21T11:31:27;14.38;;;10.70;;
1400;SDS011;46518;48.842;8.926;2023-04-21T11:33:57;13.23;;;10.95;;
1400;SDS011;46518;48.842;8.926;2023-04-21T11:36:27;16.35;;;12.32;;
1400;SDS011;46518;48.842;8.926;2023-04-21T11:38:56;13.52;;;11.18;;
1400;SDS011;46518;48.842;8.926;2023-04-21T11:41:25;11.88;;;10.60;;
1400;SDS011;46518;48.842;8.926;2023-04-21T11:43:53;12.13;;;10.10;;
1400;SDS011;46518;48.842;8.926;2023-04-21T11:46:22;11.75;;;10.43;;
1400;SDS011;46518;48.842;8.926;2023-04-21T11:48:58;11.20;;;10.02;;
1400;SDS011;46518;48.842;8.926;2023-04-21T11:51:32;11.18;;;10.02;;
1400;SDS011;46518;48.842;8.926;2023-04-21T11:54:03;12.73;;;11.30;;
1400;SDS011;46518;48.842;8.926;2023-04-21T11:56:36;12.18;;;10.90;;
1400;SDS011;46518;48.842;8.926;2023-04-21T11:59:05;11.82;;;9.13;;
1400;SDS011;46518;48.842;8.926;2023-04-21T12:01:34;10.80;;;9.55;;
1400;SDS011;46518;48.842;8.926;2023-04-21T12:04:12;10.05;;;8.95;;
1400;SDS011;46518;48.842;8.926;2023-04-21T12:06:42;13.30;;;10.45;;
1400;SDS011;46518;48.842;8.926;2023-04-21T12:09:15;12.70;;;10.90;;
1400;SDS011;46518;48.842;8.926;2023-04-21T12:11:46;10.52;;;9.40;;
1400;SDS011;46518;48.842;8.926;2023-04-21T12:14:16;10.65;;;9.60;;
1400;SDS011;46518;48.842;8.926;2023-04-21T12:16:46;9.82;;;8.85;;
1400;SDS011;46518;48.842;8.926;2023-04-21T12:19:22;11.13;;;9.90;;
1400;SDS011;46518;48.842;8.926;2023-04-21T12:21:54;12.32;;;10.90;;
1400;SDS011;46518;48.842;8.926;2023-04-21T12:24:23;11.52;;;9.80;;
1400;SDS011;46518;48.842;8.926;2023-04-21T12:26:51;11.60;;;10.40;;
1400;SDS011;46518;48.842;8.926;2023-04-21T12:29:20;11.13;;;9.35;;
1400;SDS011;46518;48.842;8.926;2023-04-21T12:31:48;10.52;;;9.43;;
1400;SDS011;46518;48.842;8.926;2023-04-21T12:34:17;10.23;;;8.90;;
1400;SDS011;46518;48.842;8.926;2023-04-21T12:36:45;9.35;;;7.95;;
1400;SDS011;46518;48.842;8.926;2023-04-21T12:39:14;10.95;;;9.77;;
1400;SDS011;46518;48.842;8.926;2023-04-21T12:41:45;9.05;;;8.10;;
1400;SDS011;46518;48.842;8.926;2023-04-21T12:44:14;9.02;;;7.95;;
1400;SDS011;46518;48.842;8.926;2023-04-21T12:46:43;8.20;;;7.40;;
1400;SDS011;46518;48.842;8.926;2023-04-21T12:49:14;8.57;;;7.72;;
1400;SDS011;46518;48.842;8.926;2023-04-21T12:51:42;9.82;;;8.85;;
1400;SDS011;46518;48.842;8.926;2023-04-21T12:54:11;9.50;;;8.05;;
1400;SDS011;46518;48.842;8.926;2023-04-21T12:56:41;9.32;;;7.95;;
1400;SDS011;46518;48.842;8.926;2023-04-21T12:59:10;8.68;;;7.75;;
1400;SDS011;46518;48.842;8.926;2023-04-21T13:01:38;8.50;;;7.60;;
1400;SDS011;46518;48.842;8.926;2023-04-21T13:04:08;8.30;;;7.45;;
1400;SDS011;46518;48.842;8.926;2023-04-21T13:06:37;8.73;;;7.82;;
1400;SDS011;46518;48.842;8.926;2023-04-21T13:09:05;8.82;;;7.53;;
1400;SDS011;46518;48.842;8.926;2023-04-21T13:11:33;10.38;;;7.45;;
1400;SDS011;46518;48.842;8.926;2023-04-21T13:14:03;9.40;;;8.40;;
1400;SDS011;46518;48.842;8.926;2023-04-21T13:16:32;8.98;;;8.07;;
1400;SDS011;46518;48.842;8.926;2023-04-21T13:19:00;8.38;;;7.38;;
1400;SDS011;46518;48.842;8.926;2023-04-21T13:21:29;7.88;;;6.28;;
1400;SDS011;46518;48.842;8.926;2023-04-21T13:23:58;7.72;;;6.88;;
1400;SDS011;46518;48.842;8.926;2023-04-21T13:26:27;10.25;;;8.10;;
1400;SDS011;46518;48.842;8.926;2023-04-21T13:28:58;10.13;;;7.80;;
1400;SDS011;46518;48.842;8.926;2023-04-21T13:31:27;7.18;;;6.47;;
1400;SDS011;46518;48.842;8.926;2023-04-21T13:33:56;8.43;;;7.35;;
1400;SDS011;46518;48.842;8.926;2023-04-21T13:36:24;7.65;;;6.60;;
1400;SDS011;46518;48.842;8.926;2023-04-21T13:38:52;9.07;;;6.55;;
1400;SDS011;46518;48.842;8.926;2023-04-21T13:41:21;7.65;;;6.85;;
1400;SDS011;46518;48.842;8.926;2023-04-21T13:43:50;8.85;;;7.95;;
1400;SDS011;46518;48.842;8.926;2023-04-21T13:46:18;6.70;;;5.95;;
1400;SDS011;46518;48.842;8.926;2023-04-21T13:48:48;6.47;;;5.78;;
1400;SDS011;46518;48.842;8.926;2023-04-21T13:51:17;6.80;;;6.20;;
1400;SDS011;46518;48.842;8.926;2023-04-21T13:53:45;7.32;;;6.65;;
1400;SDS011;46518;48.842;8.926;2023-04-21T13:56:14;6.10;;;5.60;;
1400;SDS011;46518;48.842;8.926;2023-04-21T13:58:43;6.10;;;5.50;;
1400;SDS011;46518;48.842;8.926;2023-04-21T14:01:12;7.00;;;6.25;;
1400;SDS011;46518;48.842;8.926;2023-04-21T14:03:45;6.35;;;5.75;;
1400;SDS011;46518;48.842;8.926;2023-04-21T14:06:23;6.25;;;5.65;;
1400;SDS011;46518;48.842;8.926;2023-04-21T14:08:57;6.00;;;5.50;;
1400;SDS011;46518;48.842;8.926;2023-04-21T14:11:53;7.13;;;6.43;;
1400;SDS011;46518;48.842;8.926;2023-04-21T14:14:24;7.20;;;5.70;;
1400;SDS011;46518;48.842;8.926;2023-04-21T14:17:08;5.68;;;5.18;;
1400;SDS011;46518;48.842;8.926;2023-04-21T14:19:45;5.67;;;5.13;;
1400;SDS011;46518;48.842;8.926;2023-04-21T14:22:25;7.72;;;6.95;;
1400;SDS011;46518;48.842;8.926;2023-04-21T14:25:00;6.07;;;5.33;;
1400;SDS011;46518;48.842;8.926;2023-04-21T14:27:37;6.20;;;5.63;;
1400;SDS011;46518;48.842;8.926;2023-04-21T14:30:16;5.60;;;5.00;;
1400;SDS011;46518;48.842;8.926;2023-04-21T14:32:48;6.10;;;5.50;;
1400;SDS011;46518;48.842;8.926;2023-04-21T14:35:20;5.90;;;5.17;;
1400;SDS011;46518;48.842;8.926;2023-04-21T14:37:59;6.20;;;5.60;;
1400;SDS011;46518;48.842;8.926;2023-04-21T14:40:36;7.10;;;5.43;;
1400;SDS011;46518;48.842;8.926;2023-04-21T14:43:13;5.28;;;4.72;;
1400;SDS011;46518;48.842;8.926;2023-04-21T14:45:50;5.20;;;4.80;;
1400;SDS011;46518;48.842;8.926;2023-04-21T14:48:29;4.83;;;4.43;;
1400;SDS011;46518;48.842;8.926;2023-04-21T14:51:05;4.73;;;4.33;;
1400;SDS011;46518;48.842;8.926;2023-04-21T14:53:39;5.07;;;4.67;;
1400;SDS011;46518;48.842;8.926;2023-04-21T14:56:19;5.43;;;4.90;;
1400;SDS011;46518;48.842;8.926;2023-04-21T14:59:00;7.33;;;6.23;;
1400;SDS011;46518;48.842;8.926;2023-04-21T15:01:36;7.40;;;6.40;;
1400;SDS011;46518;48.842;8.926;2023-04-21T15:04:09;5.73;;;5.03;;
1400;SDS011;46518;48.842;8.926;2023-04-21T15:06:46;5.47;;;4.93;;